Time;durP1;ratioP1;P1;durP2;ratioP2;P2;SDS_P1;SDS_P2;PMS_P1;PMS_P2;Temp;Humidity;BMP_temperature;BMP_pressure;BME280_temperature;BME280_humidity;BME280_pressure;Samples;Min_cycle;Max_cycle;Signal;HPM_P1;HPM_P2
2023/04/07 00:03:07;;;;;;;2.70;2.50;;;;;;;;;;10346566;28;20133;-83
2023/04/07 00:08:12;;;;;;;2.85;2.33;;;;;;;;;;10354649;28;20116;-83
2023/04/07 00:13:16;;;;;;;3.15;2.83;;;;;;;;;;10356704;28;20045;-83
2023/04/07 00:18:19;;;;;;;5.78;3.38;;;;;;;;;;10351328;28;20129;-83
2023/04/07 00:23:24;;;;;;;3.60;2.70;;;;;;;;;;10354960;28;20132;-83
2023/04/07 00:28:28;;;;;;;2.83;2.28;;;;;;;;;;10356018;28;20052;-83
2023/04/07 00:33:31;;;;;;;3.05;2.53;;;;;;;;;;10355297;28;20108;-83
2023/04/07 00:38:36;;;;;;;3.17;2.53;;;;;;;;;;10371067;28;20046;-83
2023/04/07 00:43:40;;;;;;;2.70;2.40;;;;;;;;;;10352595;28;20472;-83
2023/04/07 00:48:43;;;;;;;3.17;2.45;;;;;;;;;;10345770;28;20042;-83
2023/04/07 00:53:48;;;;;;;5.43;2.70;;;;;;;;;;10371173;28;20057;-83
2023/04/07 00:58:52;;;;;;;4.13;2.42;;;;;;;;;;10371857;28;20590;-83
2023/04/07 01:04:01;;;;;;;5.70;4.30;;;;;;;;;;10351816;28;20527;-84
2023/04/07 01:09:14;;;;;;;4.13;2.95;;;;;;;;;;10354464;28;20466;-82
2023/04/07 01:14:19;;;;;;;7.70;3.55;;;;;;;;;;10354642;28;20034;-83
2023/04/07 01:19:36;;;;;;;4.82;2.75;;;;;;;;;;10358509;28;20407;-84
2023/04/07 01:25:29;;;;;;;4.22;2.90;;;;;;;;;;10353720;28;20034;-83
2023/04/07 01:30:37;;;;;;;3.28;2.60;;;;;;;;;;10343311;28;20099;-83
2023/04/07 01:35:42;;;;;;;2.55;2.35;;;;;;;;;;10355583;28;20515;-84
2023/04/07 01:40:49;;;;;;;2.63;2.05;;;;;;;;;;10359600;28;20050;-82
2023/04/07 01:45:55;;;;;;;2.72;1.95;;;;;;;;;;10355672;28;20084;-83
2023/04/07 01:50:58;;;;;;;;;;;;;;;;;;10351006;28;20041;-83
2023/04/07 01:56:02;;;;;;;1.77;1.67;;;;;;;;;;10367070;28;19996;-83
2023/04/07 02:01:09;;;;;;;2.03;1.80;;;;;;;;;;10363151;28;20072;-84
2023/04/07 02:06:17;;;;;;;3.05;2.17;;;;;;;;;;10357882;28;20057;-83
2023/04/07 02:11:22;;;;;;;2.55;2.10;;;;;;;;;;10359878;28;20057;-84
2023/04/07 02:16:31;;;;;;;2.33;2.13;;;;;;;;;;10369795;28;20037;-83
2023/04/07 02:21:36;;;;;;;2.95;2.20;;;;;;;;;;10342684;28;20049;-83
2023/04/07 02:26:40;;;;;;;2.67;2.13;;;;;;;;;;10359248;28;20466;-83
2023/04/07 02:31:45;;;;;;;2.47;2.10;;;;;;;;;;10354495;28;20451;-83
2023/04/07 02:36:48;;;;;;;1.73;1.63;;;;;;;;;;10359799;28;20121;-83
2023/04/07 02:41:52;;;;;;;2.55;1.83;;;;;;;;;;10358810;28;20060;-83
2023/04/07 02:46:57;;;;;;;1.83;1.67;;;;;;;;;;10345285;28;20088;-83
2023/04/07 02:52:00;;;;;;;2.20;1.70;;;;;;;;;;10348260;28;20046;-84
2023/04/07 02:57:04;;;;;;;2.20;2.00;;;;;;;;;;10346324;28;20038;-83
2023/04/07 03:02:08;;;;;;;2.60;2.20;;;;;;;;;;10347401;28;20045;-84
2023/04/07 03:07:12;;;;;;;2.08;1.70;;;;;;;;;;10352449;28;20503;-83
2023/04/07 03:12:16;;;;;;;2.20;2.00;;;;;;;;;;10357004;28;20042;-84
2023/04/07 03:17:21;;;;;;;2.50;1.90;;;;;;;;;;10347933;28;20281;-83
2023/04/07 03:22:24;;;;;;;2.00;1.80;;;;;;;;;;10355007;28;20053;-84
2023/04/07 03:27:29;;;;;;;2.00;1.80;;;;;;;;;;10349055;28;20088;-83
2023/04/07 03:32:34;;;;;;;2.35;1.80;;;;;;;;;;10368222;28;20077;-84
2023/04/07 03:37:37;;;;;;;2.50;2.30;;;;;;;;;;10341727;28;20100;-83
2023/04/07 03:42:46;;;;;;;2.40;1.88;;;;;;;;;;10350444;28;20431;-83
2023/04/07 03:47:53;;;;;;;2.72;2.33;;;;;;;;;;10347779;28;20107;-83
2023/04/07 03:52:58;;;;;;;3.15;2.65;;;;;;;;;;10350541;28;20046;-84
2023/04/07 03:58:04;;;;;;;2.78;2.10;;;;;;;;;;10348514;28;20048;-83
2023/04/07 04:03:12;;;;;;;;;;;;;;;;;;10351435;28;20066;-83
2023/04/07 04:08:25;;;;;;;3.63;2.13;;;;;;;;;;10360789;28;19972;-83
2023/04/07 04:13:29;;;;;;;2.80;2.10;;;;;;;;;;10356802;28;20066;-84
2023/04/07 04:18:37;;;;;;;2.90;2.42;;;;;;;;;;10346293;28;20034;-83
2023/04/07 04:23:42;;;;;;;;;;;;;;;;;;10357523;28;20038;-83
2023/04/07 04:28:46;;;;;;;2.75;2.10;;;;;;;;;;10343032;28;19928;-83
2023/04/07 04:33:52;;;;;;;2.55;2.17;;;;;;;;;;10357664;28;20092;-83
2023/04/07 04:38:57;;;;;;;2.33;2.13;;;;;;;;;;10351295;28;20037;-84
2023/04/07 04:44:01;;;;;;;2.75;2.47;;;;;;;;;;10353255;28;20046;-83
2023/04/07 04:49:08;;;;;;;3.27;2.57;;;;;;;;;;10350178;28;20038;-83
2023/04/07 04:54:12;;;;;;;3.43;2.57;;;;;;;;;;10349247;28;20097;-83
2023/04/07 04:59:15;;;;;;;3.10;2.47;;;;;;;;;;10354765;28;20053;-83
2023/04/07 05:04:31;;;;;;;2.95;2.42;;;;;;;;;;10359572;28;20053;-83
2023/04/07 05:09:48;;;;;;;3.70;2.65;;;;;;;;;;10360422;28;20135;-84
2023/04/07 05:14:54;;;;;;;3.17;2.75;;;;;;;;;;10362034;28;20185;-84
2023/04/07 05:20:00;;;;;;;3.03;2.53;;;;;;;;;;10370926;28;20602;-84
2023/04/07 05:25:11;;;;;;;2.97;2.65;;;;;;;;;;10359680;28;20038;-84
2023/04/07 05:30:17;;;;;;;5.63;2.50;;;;;;;;;;10360569;28;20332;-84
2023/04/07 05:35:22;;;;;;;2.40;2.13;;;;;;;;;;10353642;28;20045;-84
2023/04/07 05:40:30;;;;;;;2.83;2.35;;;;;;;;;;10355351;28;20120;-84
2023/04/07 05:45:36;;;;;;;2.63;2.22;;;;;;;;;;10360170;28;20546;-83
2023/04/07 05:50:43;;;;;;;3.22;2.47;;;;;;;;;;10363486;28;20045;-84
2023/04/07 05:55:50;;;;;;;3.03;2.60;;;;;;;;;;10354966;28;20073;-83
2023/04/07 06:01:16;;;;;;;2.28;2.08;;;;;;;;;;10366489;28;20053;-84
2023/04/07 06:06:21;;;;;;;2.58;2.13;;;;;;;;;;10342111;28;20034;-83
2023/04/07 06:11:27;;;;;;;2.90;2.20;;;;;;;;;;10344338;28;20044;-83
2023/04/07 06:16:30;;;;;;;2.25;2.05;;;;;;;;;;10345106;28;20116;-83
2023/04/07 06:21:35;;;;;;;2.70;2.25;;;;;;;;;;10336438;28;20076;-83
2023/04/07 06:26:41;;;;;;;2.25;1.83;;;;;;;;;;10340260;28;20034;-83
2023/04/07 06:31:44;;;;;;;4.95;3.03;;;;;;;;;;10337436;28;20132;-83
2023/04/07 06:36:49;;;;;;;4.10;3.45;;;;;;;;;;10334191;28;20031;-84
2023/04/07 06:41:53;;;;;;;2.53;2.33;;;;;;;;;;10353194;28;20085;-83
2023/04/07 06:46:56;;;;;;;3.88;2.70;;;;;;;;;;10358108;28;20050;-83
2023/04/07 06:52:01;;;;;;;3.53;2.53;;;;;;;;;;10359936;28;20132;-84
2023/04/07 06:57:10;;;;;;;4.93;3.15;;;;;;;;;;10341456;28;20048;-84
2023/04/07 07:02:14;;;;;;;2.17;1.75;;;;;;;;;;10374011;28;20057;-84
2023/04/07 07:07:19;;;;;;;3.33;2.75;;;;;;;;;;10358395;28;20141;-83
2023/04/07 07:12:23;;;;;;;3.00;2.53;;;;;;;;;;10357939;28;20060;-84
2023/04/07 07:17:26;;;;;;;2.35;2.00;;;;;;;;;;10362505;28;20128;-84
2023/04/07 07:22:31;;;;;;;2.10;1.90;;;;;;;;;;10373609;28;20231;-83
2023/04/07 07:27:34;;;;;;;1.98;1.77;;;;;;;;;;10355587;28;20132;-83
2023/04/07 07:32:38;;;;;;;2.20;2.00;;;;;;;;;;10361213;28;20424;-83
2023/04/07 07:37:43;;;;;;;2.53;1.70;;;;;;;;;;10347801;28;20104;-83
2023/04/07 07:42:47;;;;;;;3.88;2.63;;;;;;;;;;10353550;28;20045;-83
2023/04/07 07:47:50;;;;;;;3.40;2.67;;;;;;;;;;10357319;28;20050;-84
2023/04/07 07:52:55;;;;;;;6.05;4.15;;;;;;;;;;10361174;28;20057;-84
2023/04/07 07:58:02;;;;;;;6.65;3.97;;;;;;;;;;10339658;28;20061;-85
2023/04/07 08:03:06;;;;;;;6.80;5.03;;;;;;;;;;10340926;28;20137;-84
2023/04/07 08:08:11;;;;;;;6.15;4.45;;;;;;;;;;10332775;28;20132;-85
2023/04/07 08:13:14;;;;;;;6.70;3.92;;;;;;;;;;10342925;28;20084;-86
2023/04/07 08:18:18;;;;;;;6.03;4.68;;;;;;;;;;10352369;28;20060;-85
2023/04/07 08:23:23;;;;;;;5.45;4.40;;;;;;;;;;10360580;28;20050;-86
2023/04/07 08:34:04;;;;;;;7.00;5.38;;;;;;;;;;10168867;24;20045;-86
2023/04/07 08:39:09;;;;;;;3.65;3.00;;;;;;;;;;10041822;29;20041;-85
2023/04/07 08:44:15;;;;;;;4.80;3.67;;;;;;;;;;10072049;23;20051;-86
2023/04/07 08:49:20;;;;;;;5.60;3.50;;;;;;;;;;10109188;29;20072;-85
2023/04/07 08:54:26;;;;;;;6.30;4.55;;;;;;;;;;10100398;29;20053;-85
2023/04/07 08:59:30;;;;;;;5.70;4.28;;;;;;;;;;10107800;29;20075;-86
2023/04/07 09:11:39;;;;;;;3.50;2.92;;;;;;;;;;10095230;29;20049;-89
2023/04/07 09:16:44;;;;;;;6.55;4.75;;;;;;;;;;10087086;29;20048;-87
2023/04/07 09:21:49;;;;;;;7.03;4.40;;;;;;;;;;10111997;29;20060;-86
2023/04/07 09:27:12;;;;;;;5.40;4.20;;;;;;;;;;10077955;29;20041;-87
2023/04/07 09:32:37;;;;;;;7.90;6.00;;;;;;;;;;10087744;29;20049;-85
2023/04/07 09:37:41;;;;;;;6.63;4.50;;;;;;;;;;10125702;29;20044;-86
2023/04/07 09:42:47;;;;;;;5.47;4.35;;;;;;;;;;10118343;29;20096;-84
2023/04/07 09:47:50;;;;;;;6.35;4.47;;;;;;;;;;10107392;29;20490;-84
2023/04/07 09:52:54;;;;;;;3.72;2.80;;;;;;;;;;10119327;29;20071;-84
2023/04/07 09:58:00;;;;;;;4.22;3.05;;;;;;;;;;10117694;29;20628;-84
2023/04/07 10:03:04;;;;;;;3.60;2.40;;;;;;;;;;10113026;29;20040;-84
2023/04/07 10:08:08;;;;;;;3.25;2.67;;;;;;;;;;10133676;29;20282;-84
2023/04/07 10:13:13;;;;;;;3.83;2.97;;;;;;;;;;10116395;29;20131;-87
2023/04/07 10:18:20;;;;;;;4.45;3.28;;;;;;;;;;10115418;29;20109;-84
2023/04/07 10:23:32;;;;;;;3.53;2.55;;;;;;;;;;10115445;29;20427;-87
2023/04/07 10:28:41;;;;;;;5.28;2.63;;;;;;;;;;10135959;29;20048;-85
2023/04/07 10:33:48;;;;;;;4.60;3.47;;;;;;;;;;10121214;29;20135;-87
2023/04/07 10:39:23;;;;;;;5.65;3.42;;;;;;;;;;10118237;29;20394;-85
2023/04/07 10:44:59;;;;;;;9.27;4.80;;;;;;;;;;10118606;29;20067;-85
2023/04/07 10:50:24;;;;;;;4.82;3.15;;;;;;;;;;10069171;29;20470;-85
2023/04/07 10:55:39;;;;;;;5.30;4.28;;;;;;;;;;10116114;29;20064;-85
2023/04/07 11:01:19;;;;;;;3.63;2.60;;;;;;;;;;10125872;29;20048;-82
2023/04/07 11:06:26;;;;;;;3.22;2.40;;;;;;;;;;10106538;29;20520;-84
2023/04/07 11:11:57;;;;;;;4.53;3.28;;;;;;;;;;10122894;29;20057;-84
2023/04/07 11:17:27;;;;;;;5.72;3.47;;;;;;;;;;10106040;29;20052;-84
2023/04/07 11:22:44;;;;;;;2.60;1.92;;;;;;;;;;10081721;29;20064;-84
2023/04/07 11:28:19;;;;;;;5.57;3.60;;;;;;;;;;10107152;29;20048;-84
2023/04/07 11:33:57;;;;;;;4.28;3.17;;;;;;;;;;10101478;29;20089;-83
2023/04/07 11:39:37;;;;;;;7.38;4.60;;;;;;;;;;10147244;29;20446;-82
2023/04/07 11:45:01;;;;;;;7.22;4.43;;;;;;;;;;10104307;29;20053;-84
2023/04/07 11:57:05;;;;;;;6.70;4.28;;;;;;;;;;10158931;29;20641;-83
2023/04/07 12:02:48;;;;;;;13.27;9.05;;;;;;;;;;10117723;29;20109;-83
2023/04/07 12:13:55;;;;;;;7.15;5.78;;;;;;;;;;10093025;29;20484;-82
2023/04/07 12:19:03;;;;;;;5.15;4.65;;;;;;;;;;10109611;29;20116;-83
2023/04/07 12:24:33;;;;;;;4.13;3.60;;;;;;;;;;10135403;29;20048;-83
2023/04/07 12:35:28;;;;;;;3.80;2.60;;;;;;;;;;10116576;29;20055;-83
2023/04/07 12:40:36;;;;;;;4.93;3.28;;;;;;;;;;10122625;29;20052;-82
2023/04/07 12:45:44;;;;;;;5.25;3.53;;;;;;;;;;10116485;29;20051;-82
2023/04/07 12:51:17;;;;;;;5.00;3.15;;;;;;;;;;10109079;29;20048;-83
2023/04/07 12:56:39;;;;;;;3.63;2.70;;;;;;;;;;10092991;29;20041;-83
2023/04/07 13:01:49;;;;;;;7.32;4.68;;;;;;;;;;10107882;29;20044;-83
2023/04/07 13:07:08;;;;;;;5.00;3.50;;;;;;;;;;10100977;29;20080;-83
2023/04/07 13:12:24;;;;;;;3.83;2.90;;;;;;;;;;10114873;29;20056;-82
2023/04/07 13:17:54;;;;;;;4.13;3.03;;;;;;;;;;10099525;29;20173;-81
2023/04/07 13:23:12;;;;;;;5.18;3.45;;;;;;;;;;10129177;29;20051;-82
2023/04/07 13:28:59;;;;;;;3.05;2.20;;;;;;;;;;10123728;29;20140;-82
2023/04/07 13:34:19;;;;;;;7.10;3.78;;;;;;;;;;10114771;29;20071;-82
2023/04/07 13:39:43;;;;;;;3.90;2.38;;;;;;;;;;10124820;29;20482;-82
2023/04/07 13:45:04;;;;;;;6.18;3.90;;;;;;;;;;10119230;29;20043;-82
2023/04/07 13:50:50;;;;;;;4.85;3.30;;;;;;;;;;10136549;29;20045;-83
2023/04/07 13:56:25;;;;;;;7.82;4.55;;;;;;;;;;10125456;29;20056;-82
2023/04/07 14:01:42;;;;;;;9.25;5.40;;;;;;;;;;10121954;29;20048;-82
2023/04/07 14:07:03;;;;;;;12.07;7.65;;;;;;;;;;10119645;29;20081;-83
2023/04/07 14:12:22;;;;;;;5.10;4.13;;;;;;;;;;10116820;29;20051;-83
2023/04/07 14:23:50;;;;;;;2.85;2.33;;;;;;;;;;10126262;29;20044;-82
2023/04/07 14:29:20;;;;;;;3.67;3.13;;;;;;;;;;10109898;29;20078;-83
2023/04/07 14:34:36;;;;;;;2.95;2.65;;;;;;;;;;10079853;29;20084;-83
2023/04/07 14:39:48;;;;;;;3.10;2.15;;;;;;;;;;10150335;29;20048;-82
2023/04/07 14:45:05;;;;;;;1.73;1.40;;;;;;;;;;10113885;29;20044;-83
2023/04/07 14:50:17;;;;;;;3.95;2.50;;;;;;;;;;10130405;29;20048;-83
2023/04/07 14:55:53;;;;;;;3.65;2.40;;;;;;;;;;10144296;29;20055;-85
2023/04/07 15:00:56;;;;;;;5.07;2.83;;;;;;;;;;10132523;29;20124;-86
2023/04/07 15:06:00;;;;;;;4.75;2.92;;;;;;;;;;10134791;29;20048;-90
2023/04/07 15:11:06;;;;;;;4.65;2.67;;;;;;;;;;10143887;29;20044;-87
2023/04/07 15:16:11;;;;;;;2.85;2.40;;;;;;;;;;10138411;29;20079;-88
2023/04/07 15:21:15;;;;;;;3.50;2.00;;;;;;;;;;10119856;29;20420;-90
2023/04/07 15:26:21;;;;;;;3.28;2.42;;;;;;;;;;10106308;29;20113;-89
2023/04/07 15:31:26;;;;;;;2.77;1.90;;;;;;;;;;10057767;29;20124;-86
2023/04/07 15:36:33;;;;;;;1.95;1.48;;;;;;;;;;10011019;29;20587;-86
2023/04/07 15:41:37;;;;;;;;;;;;;;;;;;10032147;29;20041;-86
2023/04/07 15:46:41;;;;;;;1.42;1.23;;;;;;;;;;10012586;29;20399;-90
2023/04/07 15:51:45;;;;;;;4.13;1.40;;;;;;;;;;10006997;29;20045;-89
2023/04/07 15:56:50;;;;;;;2.30;1.58;;;;;;;;;;10018310;29;20045;-86
2023/04/07 16:01:54;;;;;;;1.88;1.55;;;;;;;;;;10015706;29;20515;-91
2023/04/07 16:07:18;;;;;;;3.78;2.28;;;;;;;;;;9999804;29;20185;-87
2023/04/07 16:12:26;;;;;;;5.03;4.18;;;;;;;;;;9995233;29;20046;-86
2023/04/07 16:17:34;;;;;;;4.13;3.40;;;;;;;;;;10018429;29;20082;-85
2023/04/07 16:22:38;;;;;;;2.53;2.20;;;;;;;;;;10013110;29;20404;-86
2023/04/07 16:27:44;;;;;;;2.95;2.60;;;;;;;;;;10027320;29;20511;-87
2023/04/07 16:32:48;;;;;;;5.88;2.85;;;;;;;;;;10017536;29;20056;-86
2023/04/07 16:37:57;;;;;;;4.40;3.28;;;;;;;;;;10010341;29;20041;-88
2023/04/07 16:43:05;;;;;;;3.97;2.95;;;;;;;;;;10029693;29;20130;-87
2023/04/07 16:48:09;;;;;;;2.85;2.28;;;;;;;;;;10020577;29;20480;-86
2023/04/07 16:53:12;;;;;;;2.83;2.00;;;;;;;;;;10033243;29;20057;-86
2023/04/07 16:58:18;;;;;;;2.53;2.05;;;;;;;;;;10040965;29;20046;-86
2023/04/07 17:03:21;;;;;;;2.97;2.17;;;;;;;;;;10046315;29;20129;-86
2023/04/07 17:08:25;;;;;;;2.80;2.33;;;;;;;;;;10056470;29;20105;-86
2023/04/07 17:13:34;;;;;;;4.88;3.10;;;;;;;;;;10033510;29;20089;-88
2023/04/07 17:18:38;;;;;;;3.38;2.53;;;;;;;;;;10014437;29;20051;-91
2023/04/07 17:23:42;;;;;;;4.82;2.85;;;;;;;;;;10023503;29;20615;-87
2023/04/07 17:28:47;;;;;;;2.83;2.25;;;;;;;;;;10037603;29;20054;-87
2023/04/07 17:33:51;;;;;;;4.45;2.28;;;;;;;;;;10003226;29;20080;-91
2023/04/07 17:38:55;;;;;;;3.42;2.28;;;;;;;;;;10015828;29;20042;-86
2023/04/07 17:44:00;;;;;;;2.95;2.15;;;;;;;;;;10024981;29;20134;-86
2023/04/07 17:49:04;;;;;;;3.33;2.50;;;;;;;;;;9992928;29;20053;-85
2023/04/07 17:54:07;;;;;;;2.45;2.00;;;;;;;;;;10016503;29;20125;-84
2023/04/07 17:59:12;;;;;;;3.70;2.67;;;;;;;;;;9991441;29;20049;-83
2023/04/07 18:04:16;;;;;;;4.13;3.35;;;;;;;;;;9993320;29;20091;-87
2023/04/07 18:09:20;;;;;;;5.50;3.60;;;;;;;;;;10000139;29;20046;-91
2023/04/07 18:14:26;;;;;;;4.55;3.63;;;;;;;;;;10018044;29;20054;-88
2023/04/07 18:19:31;;;;;;;4.35;2.97;;;;;;;;;;10029556;29;20077;-91
2023/04/07 18:24:40;;;;;;;3.97;3.08;;;;;;;;;;10021052;29;20603;-87
2023/04/07 18:29:45;;;;;;;3.22;2.35;;;;;;;;;;10042861;29;20052;-86
2023/04/07 18:34:49;;;;;;;3.50;2.60;;;;;;;;;;10014531;29;20045;-86
2023/04/07 18:39:53;;;;;;;3.25;2.50;;;;;;;;;;10001421;29;20046;-86
2023/04/07 18:44:58;;;;;;;4.70;2.60;;;;;;;;;;10003961;29;20405;-87
2023/04/07 18:50:02;;;;;;;3.95;2.67;;;;;;;;;;10017813;29;20037;-90
2023/04/07 18:55:07;;;;;;;3.38;2.75;;;;;;;;;;9990826;29;20077;-89
2023/04/07 19:00:13;;;;;;;3.27;2.70;;;;;;;;;;10005508;29;20046;-88
2023/04/07 19:05:16;;;;;;;3.63;3.08;;;;;;;;;;9988947;29;20050;-90
2023/04/07 19:10:22;;;;;;;4.47;3.60;;;;;;;;;;9994455;29;20502;-90
2023/04/07 19:15:27;;;;;;;3.47;2.97;;;;;;;;;;10015323;29;20050;-87
2023/04/07 19:20:32;;;;;;;3.42;2.75;;;;;;;;;;10014407;29;20045;-87
2023/04/07 19:25:36;;;;;;;3.65;2.58;;;;;;;;;;10005098;29;20127;-86
2023/04/07 19:30:41;;;;;;;4.13;2.90;;;;;;;;;;9991554;29;20595;-87
2023/04/07 19:35:44;;;;;;;4.03;3.15;;;;;;;;;;10024907;29;20057;-86
2023/04/07 19:40:48;;;;;;;3.72;3.10;;;;;;;;;;10004941;29;20119;-87
2023/04/07 19:45:53;;;;;;;3.92;3.40;;;;;;;;;;10016148;29;20041;-87
2023/04/07 19:50:57;;;;;;;3.20;2.40;;;;;;;;;;10006628;29;20074;-87
2023/04/07 19:56:03;;;;;;;2.92;2.25;;;;;;;;;;9987948;29;20074;-86
2023/04/07 20:01:16;;;;;;;3.57;2.70;;;;;;;;;;9991653;29;20061;-86
2023/04/07 20:06:23;;;;;;;3.85;3.00;;;;;;;;;;9996879;29;20046;-91
2023/04/07 20:11:27;;;;;;;3.75;2.65;;;;;;;;;;10002221;29;20058;-86
2023/04/07 20:16:33;;;;;;;7.18;4.05;;;;;;;;;;10001142;29;20051;-86
2023/04/07 20:21:40;;;;;;;5.68;3.83;;;;;;;;;;10002222;29;20503;-90
2023/04/07 20:26:43;;;;;;;10.05;6.38;;;;;;;;;;10021288;29;20064;-87
2023/04/07 20:31:48;;;;;;;8.60;5.45;;;;;;;;;;10027348;29;20503;-91
2023/04/07 20:36:55;;;;;;;4.80;3.45;;;;;;;;;;10059953;29;20411;-92
2023/04/07 20:41:59;;;;;;;4.38;2.92;;;;;;;;;;10072500;29;20518;-85
2023/04/07 20:47:09;;;;;;;4.25;3.22;;;;;;;;;;10124008;24;20120;-86
2023/04/07 20:52:12;;;;;;;4.97;3.40;;;;;;;;;;10066645;29;20637;-89
2023/04/07 20:57:16;;;;;;;4.85;3.40;;;;;;;;;;10119206;29;20053;-85
2023/04/07 21:02:20;;;;;;;5.22;3.72;;;;;;;;;;10099216;29;20660;-86
2023/04/07 21:07:24;;;;;;;4.55;3.50;;;;;;;;;;10114995;29;20478;-86
2023/04/07 21:12:27;;;;;;;7.35;4.22;;;;;;;;;;10064532;29;20140;-89
2023/04/07 21:17:32;;;;;;;6.75;4.18;;;;;;;;;;10064918;29;20072;-86
2023/04/07 21:22:35;;;;;;;8.35;5.63;;;;;;;;;;10078687;29;20140;-85
2023/04/07 21:27:39;;;;;;;7.15;4.82;;;;;;;;;;10063748;29;20049;-88
2023/04/07 21:32:45;;;;;;;7.03;4.63;;;;;;;;;;10087940;29;20083;-86
2023/04/07 21:37:48;;;;;;;;;;;;;;;;;;10081110;29;20049;-88
2023/04/07 21:42:52;;;;;;;6.18;4.43;;;;;;;;;;10088157;29;20272;-89
2023/04/07 21:47:57;;;;;;;6.93;4.95;;;;;;;;;;10088040;29;20140;-86
2023/04/07 21:53:00;;;;;;;8.65;5.53;;;;;;;;;;10071983;29;20068;-87
2023/04/07 21:58:03;;;;;;;6.78;5.25;;;;;;;;;;10089089;29;20143;-86
2023/04/07 22:03:08;;;;;;;6.60;4.82;;;;;;;;;;10098203;29;20123;-86
2023/04/07 22:08:12;;;;;;;7.20;4.63;;;;;;;;;;10088061;29;20068;-86
2023/04/07 22:13:16;;;;;;;6.78;4.50;;;;;;;;;;10069536;29;20045;-87
2023/04/07 22:18:21;;;;;;;7.45;4.80;;;;;;;;;;10087605;29;20049;-86
2023/04/07 22:23:24;;;;;;;6.72;4.75;;;;;;;;;;10100686;29;20140;-86
2023/04/07 22:28:28;;;;;;;6.22;4.15;;;;;;;;;;10086936;29;20093;-87
2023/04/07 22:33:32;;;;;;;5.53;4.22;;;;;;;;;;10086825;29;20044;-87
2023/04/07 22:38:36;;;;;;;5.65;3.90;;;;;;;;;;10070704;29;20073;-87
2023/04/07 22:43:39;;;;;;;4.95;3.83;;;;;;;;;;10088046;29;20157;-89
2023/04/07 22:48:44;;;;;;;7.70;4.20;;;;;;;;;;10087126;29;20140;-88
2023/04/07 22:53:48;;;;;;;7.80;4.25;;;;;;;;;;10069689;29;20406;-87
2023/04/07 22:58:51;;;;;;;7.85;4.78;;;;;;;;;;10061883;29;20051;-86
2023/04/07 23:03:56;;;;;;;6.10;4.35;;;;;;;;;;10088834;29;20049;-87
2023/04/07 23:08:59;;;;;;;7.32;4.82;;;;;;;;;;10071344;29;20105;-87
2023/04/07 23:14:04;;;;;;;7.25;5.15;;;;;;;;;;10070718;29;20041;-86
2023/04/07 23:19:10;;;;;;;7.80;5.05;;;;;;;;;;10085539;29;20041;-89
2023/04/07 23:24:13;;;;;;;5.88;4.35;;;;;;;;;;10085355;29;20140;-83
2023/04/07 23:29:17;;;;;;;6.13;4.18;;;;;;;;;;10063511;29;20132;-84
2023/04/07 23:34:21;;;;;;;6.45;4.60;;;;;;;;;;10065660;29;20044;-83
2023/04/07 23:39:25;;;;;;;6.50;4.68;;;;;;;;;;10082506;29;20421;-83
2023/04/07 23:44:28;;;;;;;5.93;4.28;;;;;;;;;;10064253;29;20700;-84
2023/04/07 23:49:33;;;;;;;7.20;4.80;;;;;;;;;;10066961;29;20053;-83
2023/04/07 23:54:36;;;;;;;5.15;3.72;;;;;;;;;;10044502;23;20500;-86
2023/04/07 23:59:40;;;;;;;5.32;4.32;;;;;;;;;;9996497;29;20077;-86
